Главная страница
METAR-TAF:

METAR-TAF

Аэропорты :

Джос, Нигерия

широта: 09-52N, долгота: 008-54E, высота над уровнем моря: 1295 м

METAR: отсутствует

Время: 03:55 (02:55 UTC)

Прогноз

Эта сводка был подготовлена 3 часа и 55 минут назад, в 23:00 UTC
Прогноз действительный с 20-го 00 UTC до 21-го 06 UTC
Ветер 2 Узел переменных направлений
Видимость 10 км и более
Нет облачности ниже 1500 м, и нет кучево-дождевой облачности
изменения
С 20-го 08 UTC до 20-го 10 UTC
Ветер 10 Узел от западный-юго-западный
Рассеянная облачность на высоте 900 фута
Вероятность 30% :
временами
С 20-го 15 UTC до 20-го 20 UTC
небольшая облачность на высоте 900 фута
небольшая облачность на высоте 1800 фута, Кучево-дождевые.
гроза
изменения
С 20-го 21 UTC до 20-го 24 UTC
Ветер 2 Узел переменных направлений
Видимость 10 км и более
Нет облачности ниже 1500 м, и нет кучево-дождевой облачности

TAF: DNJO 192300Z 2000/2106 VRB02KT CAVOK BECMG 2008/2010 24010KT BKN009 PROB30 TEMPO 2015/2020 TS FEW009 FEW018CB BECMG 2021/2024 VRB02KT CAVOK

Метеонаблюдения и прогнозы для более 4000 аэропортов (сводки METAR и TAF).

Имеющиеся станции представлены на карте желтыми и красными точками.

Чтобы увидеть название станции, наведите на нее мышь.

Затем щелкните, чтобы увидеть метеонаблюдения и метеопрогнозы.

Управление картой: чтобы увеличить масштаб, щелкните зеленые кнопки с черным крестиком; чтобы уменьшить масштаб, щелкните зеленую кнопку с тире; для просмотра соседних карт щелкайте зеленые стрелки.


METAR-TAF: